createdAt,value
2023-05-06T00:00:34.692Z,90.29
2023-05-06T00:01:34.685Z,90.28
2023-05-06T00:02:34.839Z,90.35
2023-05-06T00:03:34.833Z,90.34
2023-05-06T00:04:34.690Z,90.36
2023-05-06T00:05:34.681Z,90.31
2023-05-06T00:06:34.632Z,90.21
2023-05-06T00:07:34.613Z,90.11
2023-05-06T00:08:34.687Z,90.01
2023-05-06T00:09:34.630Z,89.84
2023-05-06T00:10:34.603Z,89.68
2023-05-06T00:11:34.641Z,89.57
2023-05-06T00:12:34.588Z,89.51
2023-05-06T00:13:34.583Z,89.45
2023-05-06T00:14:34.579Z,89.50
2023-05-06T00:15:34.552Z,89.57
2023-05-06T00:16:34.570Z,89.62
2023-05-06T00:17:34.578Z,89.67
2023-05-06T00:18:34.512Z,89.69
2023-05-06T00:19:34.508Z,89.75
2023-05-06T00:20:34.481Z,89.77
2023-05-06T00:21:34.498Z,89.80
2023-05-06T00:22:34.498Z,89.83
2023-05-06T00:23:34.459Z,89.84
2023-05-06T00:24:34.467Z,89.88
2023-05-06T00:25:34.443Z,89.91
2023-05-06T00:26:34.426Z,89.98
2023-05-06T00:27:34.448Z,90.03
2023-05-06T00:28:34.434Z,90.13
2023-05-06T00:29:34.394Z,90.21
2023-05-06T00:30:34.425Z,90.31
2023-05-06T00:31:34.457Z,90.43
2023-05-06T00:32:34.409Z,90.51
2023-05-06T00:33:34.427Z,90.56
2023-05-06T00:34:34.347Z,90.63
2023-05-06T00:35:34.350Z,90.67
2023-05-06T00:36:34.339Z,90.73
2023-05-06T00:37:34.333Z,90.81
2023-05-06T00:38:34.302Z,90.87
2023-05-06T00:39:34.389Z,90.96
2023-05-06T00:40:34.319Z,91.02
2023-05-06T00:41:34.291Z,91.08
2023-05-06T00:42:34.278Z,91.16
2023-05-06T00:43:34.258Z,91.19
2023-05-06T00:44:34.274Z,91.21
2023-05-06T00:45:34.337Z,91.26
2023-05-06T00:46:34.260Z,91.27
2023-05-06T00:47:34.263Z,91.30
2023-05-06T00:48:34.212Z,91.31
2023-05-06T00:49:34.202Z,91.34
2023-05-06T00:50:34.242Z,91.37
2023-05-06T00:51:34.176Z,91.40
2023-05-06T00:52:34.169Z,91.41
2023-05-06T00:53:34.200Z,91.44
2023-05-06T00:54:34.157Z,91.49
2023-05-06T00:55:34.143Z,91.51
2023-05-06T00:56:34.133Z,91.54
2023-05-06T00:57:34.117Z,91.56
2023-05-06T00:58:34.120Z,91.58
2023-05-06T00:59:34.120Z,91.60
2023-05-06T01:00:34.082Z,91.62
2023-05-06T01:01:34.150Z,91.65
2023-05-06T01:02:43.761Z,91.68
2023-05-06T01:03:34.122Z,91.71
2023-05-06T01:04:34.169Z,91.74
2023-05-06T01:05:34.045Z,91.74
2023-05-06T01:06:34.020Z,91.75
2023-05-06T01:07:34.031Z,91.74
2023-05-06T01:08:34.020Z,91.71
2023-05-06T01:09:34.035Z,91.64
2023-05-06T01:10:33.989Z,91.60
2023-05-06T01:11:33.988Z,91.58
2023-05-06T01:12:34.037Z,91.53
2023-05-06T01:13:33.963Z,91.48
2023-05-06T01:14:33.968Z,91.44
2023-05-06T01:15:33.947Z,91.41
2023-05-06T01:16:33.943Z,91.38
2023-05-06T01:17:33.966Z,91.33
2023-05-06T01:18:33.921Z,91.32
2023-05-06T01:19:33.902Z,91.29
2023-05-06T01:20:33.905Z,91.29
2023-05-06T01:21:33.909Z,91.25
2023-05-06T01:22:33.865Z,91.23
2023-05-06T01:23:34.033Z,91.22
2023-05-06T01:24:33.851Z,91.19
2023-05-06T01:25:33.850Z,91.19
2023-05-06T01:26:33.847Z,91.15
2023-05-06T01:27:33.849Z,91.15
2023-05-06T01:28:33.822Z,91.16
2023-05-06T01:29:33.810Z,91.17
2023-05-06T01:30:33.788Z,91.19
2023-05-06T01:31:33.901Z,91.23
2023-05-06T01:32:33.892Z,91.24
2023-05-06T01:33:33.765Z,91.25
2023-05-06T01:34:33.754Z,91.26
2023-05-06T01:35:33.762Z,91.29
2023-05-06T01:36:33.783Z,91.32
2023-05-06T01:37:33.739Z,91.35
2023-05-06T01:38:33.713Z,91.39
2023-05-06T01:39:33.810Z,91.41
2023-05-06T01:40:33.695Z,91.46
2023-05-06T01:41:33.709Z,91.52
2023-05-06T01:42:33.763Z,91.52
2023-05-06T01:43:33.665Z,91.55
2023-05-06T01:44:33.666Z,91.56
2023-05-06T01:45:33.701Z,91.59
2023-05-06T01:46:33.663Z,91.61
2023-05-06T01:47:33.679Z,91.62
2023-05-06T01:48:33.651Z,91.64
2023-05-06T01:49:33.620Z,91.67
2023-05-06T01:50:33.591Z,91.70
2023-05-06T01:51:33.701Z,91.73
2023-05-06T01:52:33.577Z,91.76
2023-05-06T01:53:33.587Z,91.78
2023-05-06T01:54:33.590Z,91.77
2023-05-06T01:55:33.546Z,91.80
2023-05-06T01:56:33.528Z,91.84
2023-05-06T01:57:33.542Z,91.87
2023-05-06T01:58:33.511Z,91.89
2023-05-06T01:59:33.533Z,91.91
2023-05-06T02:00:33.537Z,91.93
2023-05-06T02:01:33.530Z,91.96
2023-05-06T02:02:33.526Z,91.98
2023-05-06T02:03:33.632Z,92.00
2023-05-06T02:04:33.470Z,92.03
2023-05-06T02:05:33.455Z,92.05
2023-05-06T02:06:33.455Z,92.06
2023-05-06T02:07:33.434Z,92.13
2023-05-06T02:08:33.412Z,92.11
2023-05-06T02:09:33.422Z,92.17
2023-05-06T02:10:33.463Z,92.20
2023-05-06T02:11:33.388Z,92.22
2023-05-06T02:12:33.385Z,92.24
2023-05-06T02:13:33.422Z,92.27
2023-05-06T02:14:33.350Z,92.28
2023-05-06T02:15:33.361Z,92.31
2023-05-06T02:16:33.410Z,92.33
2023-05-06T02:17:33.395Z,92.34
2023-05-06T02:18:33.321Z,92.34
2023-05-06T02:19:33.362Z,92.36
2023-05-06T02:20:33.307Z,92.38
2023-05-06T02:21:33.282Z,92.39
2023-05-06T02:22:33.328Z,92.40
2023-05-06T02:23:33.289Z,92.41
2023-05-06T02:24:33.269Z,92.41
2023-05-06T02:25:33.270Z,92.43
2023-05-06T02:26:33.224Z,92.42
2023-05-06T02:27:33.222Z,92.41
2023-05-06T02:28:33.321Z,92.42
2023-05-06T02:29:33.216Z,92.41
2023-05-06T02:30:33.216Z,92.41
2023-05-06T02:31:33.293Z,92.40
2023-05-06T02:32:33.205Z,92.40
2023-05-06T02:33:33.184Z,92.40
2023-05-06T02:34:33.201Z,92.39
2023-05-06T02:35:33.157Z,92.37
2023-05-06T02:36:33.160Z,92.36
2023-05-06T02:37:33.180Z,92.35
2023-05-06T02:38:33.110Z,92.34
2023-05-06T02:39:33.153Z,92.37
2023-05-06T02:40:33.130Z,92.39
2023-05-06T02:41:33.085Z,92.41
2023-05-06T02:42:33.143Z,92.43
2023-05-06T02:43:33.163Z,92.46
2023-05-06T02:44:33.050Z,92.47
2023-05-06T02:45:33.058Z,92.50
2023-05-06T02:46:33.074Z,92.51
2023-05-06T02:47:33.102Z,92.55
2023-05-06T02:48:33.012Z,92.56
2023-05-06T02:49:33.035Z,92.60
2023-05-06T02:50:32.990Z,92.62
2023-05-06T02:51:33.037Z,92.62
2023-05-06T02:52:33.045Z,92.62
2023-05-06T02:53:32.968Z,92.63
2023-05-06T02:54:32.981Z,92.64
2023-05-06T02:55:33.044Z,92.63
2023-05-06T02:56:32.932Z,92.64
2023-05-06T02:57:32.929Z,92.61
2023-05-06T02:58:32.947Z,92.63
2023-05-06T02:59:32.912Z,92.61
2023-05-06T03:00:32.916Z,92.62
2023-05-06T03:01:33.110Z,92.63
2023-05-06T03:02:33.656Z,92.61
2023-05-06T03:03:32.867Z,92.62
2023-05-06T03:04:33.086Z,92.62
2023-05-06T03:05:32.849Z,92.61
2023-05-06T03:06:32.826Z,92.58
2023-05-06T03:07:32.908Z,92.58
2023-05-06T03:08:32.812Z,92.57
2023-05-06T03:09:32.802Z,92.57
2023-05-06T03:10:32.806Z,92.53
2023-05-06T03:11:32.800Z,92.49
2023-05-06T03:12:32.849Z,92.47
2023-05-06T03:13:32.805Z,92.45
2023-05-06T03:14:32.749Z,92.43
2023-05-06T03:15:32.778Z,92.43
2023-05-06T03:16:32.767Z,92.38
2023-05-06T03:17:32.746Z,92.37
2023-05-06T03:18:32.732Z,92.35
2023-05-06T03:19:32.761Z,92.31
2023-05-06T03:20:32.646Z,92.27
2023-05-06T03:21:32.700Z,92.21
2023-05-06T03:22:32.718Z,92.18
2023-05-06T03:23:32.630Z,92.17
2023-05-06T03:24:32.600Z,92.16
2023-05-06T03:25:32.587Z,92.16
2023-05-06T03:26:32.585Z,92.17
2023-05-06T03:27:32.592Z,92.19
2023-05-06T03:28:32.562Z,92.18
2023-05-06T03:29:32.551Z,92.19
2023-05-06T03:30:32.534Z,92.20
2023-05-06T03:31:32.576Z,92.21
2023-05-06T03:32:32.564Z,92.22
2023-05-06T03:33:32.529Z,92.21
2023-05-06T03:34:32.495Z,92.21
2023-05-06T03:35:32.486Z,92.20
2023-05-06T03:36:32.489Z,92.21
2023-05-06T03:37:32.496Z,92.19
2023-05-06T03:38:32.487Z,92.17
2023-05-06T03:39:32.445Z,92.15
2023-05-06T03:40:32.436Z,92.15
2023-05-06T03:41:32.457Z,92.14
2023-05-06T03:42:32.488Z,92.12
2023-05-06T03:43:32.454Z,92.11
2023-05-06T03:44:32.402Z,92.12
2023-05-06T03:45:32.392Z,92.09
2023-05-06T03:46:32.470Z,92.09
2023-05-06T03:47:32.453Z,92.06
2023-05-06T03:48:32.366Z,92.03
2023-05-06T03:49:32.383Z,92.00
2023-05-06T03:50:32.389Z,91.98
2023-05-06T03:51:32.380Z,91.95
2023-05-06T03:52:32.322Z,91.95
2023-05-06T03:53:32.371Z,91.94
2023-05-06T03:54:32.317Z,91.94
2023-05-06T03:55:32.627Z,91.92
2023-05-06T03:56:32.487Z,91.92
2023-05-06T03:57:32.679Z,91.91
2023-05-06T03:58:32.283Z,91.89
2023-05-06T03:59:32.267Z,91.86
2023-05-06T04:00:32.278Z,91.83
2023-05-06T04:01:32.225Z,91.81
2023-05-06T04:02:32.332Z,91.77
2023-05-06T04:03:32.355Z,91.74
2023-05-06T04:04:32.199Z,91.72
2023-05-06T04:05:32.214Z,91.71
2023-05-06T04:06:32.203Z,91.67
2023-05-06T04:07:32.164Z,91.66
2023-05-06T04:08:32.160Z,91.66
2023-05-06T04:09:32.146Z,91.64
2023-05-06T04:10:32.141Z,91.65
2023-05-06T04:11:32.143Z,91.65
2023-05-06T04:12:32.130Z,91.64
2023-05-06T04:13:32.100Z,91.61
2023-05-06T04:14:32.120Z,91.57
2023-05-06T04:15:32.096Z,91.51
2023-05-06T04:16:32.105Z,91.48
2023-05-06T04:17:32.097Z,91.45
2023-05-06T04:18:32.055Z,91.41
2023-05-06T04:19:32.043Z,91.37
2023-05-06T04:20:32.057Z,91.31
2023-05-06T04:21:32.023Z,91.25
2023-05-06T04:22:32.020Z,91.20
2023-05-06T04:23:32.017Z,91.08
2023-05-06T04:24:31.994Z,90.99
2023-05-06T04:25:31.984Z,90.89
2023-05-06T04:26:31.971Z,90.77
2023-05-06T04:27:31.961Z,90.68
2023-05-06T04:28:31.964Z,90.59
2023-05-06T04:29:31.978Z,90.48
2023-05-06T04:30:31.935Z,90.39
2023-05-06T04:31:32.009Z,90.35
2023-05-06T04:32:31.947Z,90.23
2023-05-06T04:33:31.918Z,90.13
2023-05-06T04:34:31.905Z,90.11
2023-05-06T04:35:31.888Z,90.07
2023-05-06T04:36:31.879Z,90.07
2023-05-06T04:37:31.883Z,90.06
2023-05-06T04:38:31.881Z,89.98
2023-05-06T04:39:31.845Z,89.92
2023-05-06T04:40:31.857Z,89.89
2023-05-06T04:41:31.854Z,89.85
2023-05-06T04:42:31.821Z,89.81
2023-05-06T04:43:31.824Z,89.78
2023-05-06T04:44:31.807Z,89.79
2023-05-06T04:45:31.800Z,89.76
2023-05-06T04:46:31.784Z,89.72
2023-05-06T04:47:31.828Z,89.66
2023-05-06T04:48:31.791Z,89.64
2023-05-06T04:49:31.766Z,89.59
2023-05-06T04:50:31.777Z,89.62
2023-05-06T04:51:31.752Z,89.63
2023-05-06T04:52:31.715Z,89.62
2023-05-06T04:53:31.708Z,89.65
2023-05-06T04:54:31.702Z,89.69
2023-05-06T04:55:31.708Z,89.68
2023-05-06T04:56:31.689Z,89.67
2023-05-06T04:57:31.693Z,89.67
2023-05-06T04:58:31.662Z,89.62
2023-05-06T04:59:31.648Z,89.57
2023-05-06T05:00:31.654Z,89.32
2023-05-06T05:01:31.715Z,89.14
2023-05-06T05:02:31.711Z,89.02
2023-05-06T05:03:31.791Z,89.00
2023-05-06T05:04:31.631Z,88.93
2023-05-06T05:05:31.598Z,88.93
2023-05-06T05:06:31.608Z,88.91
2023-05-06T05:07:31.585Z,88.85
2023-05-06T05:08:31.592Z,88.77
2023-05-06T05:09:31.553Z,88.47
2023-05-06T05:10:31.561Z,88.28
2023-05-06T05:11:31.531Z,88.11
2023-05-06T05:12:31.523Z,87.90
2023-05-06T05:13:31.511Z,87.61
2023-05-06T05:14:31.507Z,87.44
2023-05-06T05:15:31.499Z,87.35
2023-05-06T05:16:31.547Z,87.34
2023-05-06T05:17:31.508Z,87.27
2023-05-06T05:18:31.485Z,87.09
2023-05-06T05:19:31.467Z,86.42
2023-05-06T05:20:31.471Z,86.11
2023-05-06T05:21:31.473Z,86.38
2023-05-06T05:22:31.581Z,86.63
2023-05-06T05:23:31.423Z,86.90
2023-05-06T05:24:31.440Z,86.72
2023-05-06T05:25:31.427Z,86.73
2023-05-06T05:26:31.391Z,86.69
2023-05-06T05:27:31.375Z,86.57
2023-05-06T05:28:31.385Z,86.26
2023-05-06T05:29:31.352Z,86.35
2023-05-06T05:30:31.357Z,86.45
2023-05-06T05:31:31.557Z,86.57
2023-05-06T05:32:31.400Z,86.67
2023-05-06T05:33:31.403Z,86.26
2023-05-06T05:34:31.302Z,85.89
2023-05-06T05:35:31.321Z,85.72
2023-05-06T05:36:31.302Z,85.28
2023-05-06T05:37:31.439Z,85.33
2023-05-06T05:38:31.276Z,85.82
2023-05-06T05:39:31.311Z,86.06
2023-05-06T05:40:31.295Z,85.97
2023-05-06T05:41:31.286Z,85.56
2023-05-06T05:42:31.238Z,85.78
2023-05-06T05:43:31.208Z,85.69
2023-05-06T05:44:31.233Z,85.57
2023-05-06T05:45:31.222Z,85.58
2023-05-06T05:46:31.270Z,85.60
2023-05-06T05:47:31.209Z,85.80
2023-05-06T05:48:31.179Z,85.68
2023-05-06T05:49:31.174Z,85.79
2023-05-06T05:50:31.138Z,85.92
2023-05-06T05:51:31.156Z,85.80
2023-05-06T05:52:31.119Z,85.88
2023-05-06T05:53:31.150Z,85.87
2023-05-06T05:54:31.161Z,85.88
2023-05-06T05:55:31.164Z,85.78
2023-05-06T05:56:31.134Z,85.55
2023-05-06T05:57:31.090Z,85.34
2023-05-06T05:58:31.056Z,84.86
2023-05-06T05:59:31.070Z,84.27
2023-05-06T06:00:31.074Z,83.97
2023-05-06T06:01:31.056Z,83.83
2023-05-06T06:02:31.118Z,83.78
2023-05-06T06:03:31.256Z,84.07
2023-05-06T06:04:31.034Z,83.71
2023-05-06T06:05:30.990Z,84.01
2023-05-06T06:06:31.056Z,83.75
2023-05-06T06:07:30.980Z,83.47
2023-05-06T06:08:30.984Z,83.33
2023-05-06T06:09:30.958Z,83.30
2023-05-06T06:10:30.979Z,83.19
2023-05-06T06:11:30.938Z,83.28
2023-05-06T06:12:30.912Z,83.47
2023-05-06T06:13:31.054Z,83.47
2023-05-06T06:14:30.951Z,83.08
2023-05-06T06:15:30.881Z,83.30
2023-05-06T06:16:30.924Z,82.93
2023-05-06T06:17:30.908Z,82.70
2023-05-06T06:18:30.857Z,82.81
2023-05-06T06:19:30.861Z,82.93
2023-05-06T06:20:30.853Z,82.39
2023-05-06T06:21:30.823Z,82.19
2023-05-06T06:22:30.820Z,82.25
2023-05-06T06:23:30.904Z,81.58
2023-05-06T06:24:30.803Z,81.84
2023-05-06T06:25:30.815Z,81.65
2023-05-06T06:26:30.804Z,81.61
2023-05-06T06:27:30.769Z,81.08
2023-05-06T06:28:30.761Z,80.49
2023-05-06T06:29:30.743Z,80.88
2023-05-06T06:30:30.744Z,80.77
2023-05-06T06:31:30.767Z,80.64
2023-05-06T06:32:30.764Z,81.15
2023-05-06T06:33:30.740Z,81.21
2023-05-06T06:34:30.694Z,80.89
2023-05-06T06:35:30.706Z,81.55
2023-05-06T06:36:30.703Z,80.90
2023-05-06T06:37:30.698Z,81.12
2023-05-06T06:38:30.717Z,81.20
2023-05-06T06:39:30.658Z,81.58
2023-05-06T06:40:30.675Z,80.76
2023-05-06T06:41:30.655Z,80.85
2023-05-06T06:42:30.628Z,80.96
2023-05-06T06:43:30.618Z,81.19
2023-05-06T06:44:30.599Z,81.40
2023-05-06T06:45:30.694Z,81.42
2023-05-06T06:46:30.594Z,81.80
2023-05-06T06:47:30.606Z,81.39
2023-05-06T06:48:30.582Z,81.63
2023-05-06T06:49:30.560Z,81.14
2023-05-06T06:50:30.538Z,80.59
2023-05-06T06:51:30.528Z,80.60
2023-05-06T06:52:30.511Z,79.98
2023-05-06T06:53:30.524Z,79.64
2023-05-06T06:54:30.581Z,79.54
2023-05-06T06:55:30.485Z,80.07
2023-05-06T06:56:30.477Z,80.07
2023-05-06T06:57:30.466Z,79.74
2023-05-06T06:58:30.478Z,80.13
2023-05-06T06:59:30.434Z,79.54
2023-05-06T07:00:30.456Z,79.18
2023-05-06T07:01:30.497Z,79.27
2023-05-06T07:02:30.453Z,79.07
2023-05-06T07:03:30.414Z,79.28
2023-05-06T07:04:30.417Z,79.07
2023-05-06T07:05:30.381Z,78.33
2023-05-06T07:06:30.399Z,78.18
2023-05-06T07:07:30.394Z,78.53
2023-05-06T07:08:30.380Z,78.63
2023-05-06T07:09:30.343Z,78.91
2023-05-06T07:10:30.357Z,78.12
2023-05-06T07:11:30.354Z,78.15
2023-05-06T07:12:30.307Z,77.53
2023-05-06T07:13:30.326Z,77.71
2023-05-06T07:14:30.298Z,78.29
2023-05-06T07:15:30.288Z,78.36
2023-05-06T07:16:30.320Z,78.54
2023-05-06T07:17:30.255Z,78.60
2023-05-06T07:18:30.254Z,78.44
2023-05-06T07:19:30.287Z,77.75
2023-05-06T07:20:30.276Z,77.36
2023-05-06T07:21:30.229Z,77.23
2023-05-06T07:22:30.243Z,77.17
2023-05-06T07:23:32.037Z,75.72
2023-05-06T07:24:30.187Z,75.97
2023-05-06T07:25:30.194Z,75.57
2023-05-06T07:26:30.188Z,75.41
2023-05-06T07:27:30.164Z,75.26
2023-05-06T07:28:30.160Z,74.43
2023-05-06T07:29:30.147Z,75.20
2023-05-06T07:30:30.146Z,75.06
2023-05-06T07:31:30.183Z,74.93
2023-05-06T07:32:30.184Z,74.79
2023-05-06T07:33:30.129Z,75.06
2023-05-06T07:34:30.086Z,74.23
2023-05-06T07:35:30.076Z,73.95
2023-05-06T07:36:30.079Z,74.61
2023-05-06T07:37:30.057Z,74.67
2023-05-06T07:38:30.046Z,73.19
2023-05-06T07:39:30.044Z,72.81
2023-05-06T07:40:30.028Z,72.62
2023-05-06T07:41:30.039Z,73.68
2023-05-06T07:42:30.018Z,74.43
2023-05-06T07:43:30.040Z,74.31
2023-05-06T07:44:30.027Z,73.26
2023-05-06T07:45:30.032Z,73.12
2023-05-06T07:46:30.087Z,74.11
2023-05-06T07:47:30.015Z,74.17
2023-05-06T07:48:30.000Z,74.71
2023-05-06T07:49:29.934Z,75.35
2023-05-06T07:50:29.928Z,75.47
2023-05-06T07:51:29.956Z,74.59
2023-05-06T07:52:29.910Z,73.75
2023-05-06T07:53:29.934Z,73.41
2023-05-06T07:54:29.884Z,72.16
2023-05-06T07:55:29.883Z,70.60
2023-05-06T07:56:29.876Z,71.66
2023-05-06T07:57:30.706Z,70.07
2023-05-06T07:58:29.856Z,71.08
2023-05-06T07:59:29.868Z,70.95
2023-05-06T08:00:29.892Z,71.23
2023-05-06T08:01:29.861Z,70.48
2023-05-06T08:02:29.982Z,71.12
2023-05-06T08:03:30.038Z,70.92
2023-05-06T08:04:29.893Z,70.89
2023-05-06T08:05:29.845Z,71.43
2023-05-06T08:06:29.782Z,71.93
2023-05-06T08:07:29.763Z,72.40
2023-05-06T08:08:30.836Z,71.53
2023-05-06T08:09:29.809Z,70.76
2023-05-06T08:10:29.751Z,70.71
2023-05-06T08:11:29.753Z,70.56
2023-05-06T08:12:29.729Z,70.72
2023-05-06T08:13:29.713Z,71.21
2023-05-06T08:14:29.767Z,71.31
2023-05-06T08:15:29.684Z,71.32
2023-05-06T08:16:29.756Z,71.38
2023-05-06T08:17:29.795Z,70.89
2023-05-06T08:18:29.697Z,70.46
2023-05-06T08:19:29.686Z,69.79
2023-05-06T08:20:29.644Z,69.55
2023-05-06T08:21:29.655Z,69.31
2023-05-06T08:22:29.633Z,69.08
2023-05-06T08:23:29.673Z,68.85
2023-05-06T08:24:29.615Z,69.46
2023-05-06T08:25:29.612Z,69.87
2023-05-06T08:26:29.593Z,68.85
2023-05-06T08:27:29.585Z,69.78
2023-05-06T08:28:29.593Z,68.95
2023-05-06T08:29:29.542Z,69.47
2023-05-06T08:30:29.529Z,69.12
2023-05-06T08:31:29.558Z,70.29
2023-05-06T08:32:29.561Z,69.38
2023-05-06T08:33:29.570Z,68.98
2023-05-06T08:34:29.501Z,70.05
2023-05-06T08:35:29.512Z,70.49
2023-05-06T08:36:29.477Z,70.91
2023-05-06T08:37:29.500Z,71.52
2023-05-06T08:38:29.489Z,72.22
2023-05-06T08:39:29.484Z,72.13
2023-05-06T08:40:29.431Z,71.52
2023-05-06T08:41:29.429Z,70.76
2023-05-06T08:42:29.422Z,70.15
2023-05-06T08:43:29.419Z,70.43
2023-05-06T08:44:29.427Z,70.76
2023-05-06T08:45:29.739Z,70.93
2023-05-06T08:46:29.395Z,71.28
2023-05-06T08:47:29.404Z,71.38
2023-05-06T08:48:29.341Z,71.41
2023-05-06T08:49:29.352Z,70.82
2023-05-06T08:50:29.356Z,70.34
2023-05-06T08:51:29.323Z,69.62
2023-05-06T08:52:29.317Z,69.19
2023-05-06T08:53:29.334Z,67.62
2023-05-06T08:54:29.301Z,66.67
2023-05-06T08:55:29.305Z,66.46
2023-05-06T08:56:29.310Z,66.97
2023-05-06T08:57:29.272Z,67.52
2023-05-06T08:58:29.242Z,67.49
2023-05-06T08:59:29.261Z,66.27
2023-05-06T09:00:29.241Z,67.05
2023-05-06T09:01:29.286Z,67.08
2023-05-06T09:02:29.306Z,66.24
2023-05-06T09:03:29.284Z,66.30
2023-05-06T09:04:29.223Z,65.83
2023-05-06T09:05:29.206Z,66.33
2023-05-06T09:06:29.195Z,67.82
2023-05-06T09:07:29.234Z,68.74
2023-05-06T09:08:29.164Z,68.92
2023-05-06T09:09:29.206Z,68.76
2023-05-06T09:10:29.138Z,68.82
2023-05-06T09:11:29.184Z,68.59
2023-05-06T09:12:29.176Z,68.00
2023-05-06T09:13:29.114Z,66.73
2023-05-06T09:14:29.104Z,66.58
2023-05-06T09:15:29.075Z,65.13
2023-05-06T09:16:29.164Z,65.73
2023-05-06T09:17:29.096Z,65.96
2023-05-06T09:18:29.044Z,66.58
2023-05-06T09:19:29.181Z,66.54
2023-05-06T09:20:29.739Z,66.44
2023-05-06T09:21:29.012Z,66.82
2023-05-06T09:22:29.022Z,65.41
2023-05-06T09:23:29.057Z,65.57
2023-05-06T09:24:29.069Z,66.19
2023-05-06T09:25:29.010Z,67.65
2023-05-06T09:26:29.647Z,67.07
2023-05-06T09:27:28.951Z,65.39
2023-05-06T09:28:28.993Z,64.62
2023-05-06T09:29:28.997Z,66.23
2023-05-06T09:30:28.931Z,66.79
2023-05-06T09:31:29.050Z,65.88
2023-05-06T09:32:28.991Z,65.84
2023-05-06T09:33:28.910Z,66.50
2023-05-06T09:34:28.977Z,66.91
2023-05-06T09:35:29.140Z,66.16
2023-05-06T09:36:28.870Z,64.24
2023-05-06T09:37:28.903Z,64.94
2023-05-06T09:38:28.842Z,64.13
2023-05-06T09:39:28.849Z,62.81
2023-05-06T09:40:28.830Z,62.57
2023-05-06T09:41:28.817Z,62.79
2023-05-06T09:42:28.884Z,62.27
2023-05-06T09:43:28.821Z,60.70
2023-05-06T09:44:28.791Z,58.40
2023-05-06T09:45:28.803Z,58.60
2023-05-06T09:46:28.812Z,59.60
2023-05-06T09:47:28.880Z,59.84
2023-05-06T09:48:28.748Z,59.55
2023-05-06T09:49:28.734Z,57.75
2023-05-06T09:50:28.756Z,58.61
2023-05-06T09:51:28.781Z,58.66
2023-05-06T09:52:28.752Z,58.91
2023-05-06T09:53:28.823Z,58.30
2023-05-06T09:54:28.769Z,58.32
2023-05-06T09:55:28.825Z,59.94
2023-05-06T09:56:28.714Z,59.23
2023-05-06T09:57:28.684Z,58.38
2023-05-06T09:58:28.666Z,57.41
2023-05-06T09:59:28.705Z,58.55
2023-05-06T12:36:46.937Z,43.56
2023-05-06T12:37:47.946Z,45.02
2023-05-06T12:38:47.932Z,45.18
2023-05-06T12:39:47.962Z,45.92
2023-05-06T12:41:03.265Z,44.60
2023-05-06T12:42:04.263Z,45.46
2023-05-06T12:43:29.093Z,44.80
2023-05-06T12:44:30.014Z,46.48
2023-05-06T12:45:33.288Z,44.95
2023-05-06T12:46:58.154Z,47.07
2023-05-06T12:47:59.127Z,45.79
2023-05-06T12:48:59.053Z,46.33
2023-05-06T12:50:07.975Z,46.45
2023-05-06T12:50:59.033Z,43.70
2023-05-06T12:51:59.109Z,43.49
2023-05-06T12:52:59.024Z,41.78
2023-05-06T12:53:59.037Z,42.01
2023-05-06T12:54:59.031Z,42.47
2023-05-06T12:55:59.023Z,41.90
2023-05-06T12:56:59.011Z,42.90
2023-05-06T12:57:59.020Z,41.47
2023-05-06T12:58:58.993Z,41.71
2023-05-06T12:59:58.966Z,41.63
2023-05-06T13:00:59.027Z,41.37
2023-05-06T13:01:59.162Z,41.76
2023-05-06T13:02:59.050Z,42.38
2023-05-06T13:03:58.921Z,42.68
2023-05-06T13:04:58.939Z,40.92
2023-05-06T13:05:58.985Z,40.51
2023-05-06T13:06:58.941Z,40.86
2023-05-06T13:07:58.920Z,42.25
2023-05-06T13:08:58.880Z,42.16
2023-05-06T13:09:58.860Z,44.15
2023-05-06T13:10:58.863Z,43.35
2023-05-06T13:11:58.838Z,43.46
2023-05-06T13:12:58.889Z,42.99
2023-05-06T13:13:58.851Z,41.38
2023-05-06T13:14:58.848Z,41.40
2023-05-06T13:15:58.840Z,37.98
2023-05-06T13:16:59.176Z,40.12
2023-05-06T13:17:58.875Z,40.50
2023-05-06T13:18:59.284Z,39.36
2023-05-06T13:19:58.821Z,39.31
2023-05-06T13:20:58.781Z,40.08
2023-05-06T13:21:58.936Z,41.87
2023-05-06T13:22:58.794Z,42.28
2023-05-06T13:23:58.790Z,44.99
2023-05-06T13:24:58.784Z,45.03
2023-05-06T13:26:04.668Z,45.57
2023-05-06T13:26:58.729Z,44.67
2023-05-06T13:27:58.757Z,45.60
2023-05-06T13:28:58.790Z,46.22
2023-05-06T13:29:58.743Z,45.98
2023-05-06T13:30:58.711Z,48.51
2023-05-06T13:31:58.719Z,49.60
2023-05-06T13:32:58.768Z,47.92
2023-05-06T13:33:58.770Z,47.72
2023-05-06T13:34:59.213Z,49.34
2023-05-06T13:35:58.681Z,48.83
2023-05-06T13:36:58.703Z,48.21
2023-05-06T13:37:58.668Z,49.25
2023-05-06T13:38:59.003Z,49.03
2023-05-06T13:39:58.654Z,49.17
2023-05-06T13:40:58.630Z,46.71
2023-05-06T13:41:58.665Z,48.42
2023-05-06T13:42:58.613Z,48.18
2023-05-06T13:43:58.634Z,46.87
2023-05-06T13:44:58.637Z,46.20
2023-05-06T13:45:58.617Z,46.68
2023-05-06T13:46:58.658Z,46.72
2023-05-06T13:47:58.548Z,46.24
2023-05-06T13:48:58.495Z,45.87
2023-05-06T13:49:58.576Z,44.72
2023-05-06T13:50:58.714Z,45.23
2023-05-06T13:51:58.540Z,44.68
2023-05-06T13:52:58.548Z,43.86
2023-05-06T13:53:58.552Z,44.14
2023-05-06T13:54:58.487Z,43.41
2023-05-06T13:55:58.484Z,42.91
2023-05-06T13:56:58.435Z,42.56
2023-05-06T13:57:58.561Z,41.96
2023-05-06T13:58:58.390Z,42.48
2023-05-06T13:59:58.423Z,42.53
2023-05-06T14:00:58.392Z,42.42
2023-05-06T14:01:58.377Z,43.24
2023-05-06T14:02:58.411Z,42.91
2023-05-06T14:03:58.392Z,43.84
2023-05-06T14:04:58.397Z,41.94
2023-05-06T14:05:58.608Z,41.55
2023-05-06T14:06:58.359Z,41.40
2023-05-06T14:07:58.349Z,41.86
2023-05-06T14:08:58.609Z,43.55
2023-05-06T14:09:58.709Z,44.03
2023-05-06T14:10:58.459Z,43.77
2023-05-06T14:11:58.577Z,45.34
2023-05-06T14:12:58.391Z,45.47
2023-05-06T14:13:58.250Z,45.75
2023-05-06T14:14:58.236Z,46.93
2023-05-06T14:15:58.245Z,46.72
2023-05-06T14:16:58.242Z,46.48
2023-05-06T14:17:58.230Z,45.82
2023-05-06T14:18:58.191Z,45.31
2023-05-06T14:19:58.178Z,44.59
2023-05-06T14:20:58.162Z,45.61
2023-05-06T14:21:58.163Z,46.99
2023-05-06T14:22:58.192Z,47.13
2023-05-06T14:23:58.141Z,46.69
2023-05-06T14:24:58.132Z,46.70
2023-05-06T14:25:58.136Z,46.00
2023-05-06T14:26:58.154Z,46.17
2023-05-06T14:27:58.190Z,46.18
2023-05-06T14:28:58.108Z,46.38
2023-05-06T14:29:58.094Z,46.36
2023-05-06T14:30:58.069Z,46.49
2023-05-06T14:31:58.113Z,47.12
2023-05-06T14:32:58.118Z,46.88
2023-05-06T14:33:58.052Z,45.55
2023-05-06T14:34:58.035Z,46.18
2023-05-06T14:35:58.023Z,47.46
2023-05-06T14:36:58.018Z,45.54
2023-05-06T14:37:58.016Z,43.57
2023-05-06T14:38:57.991Z,44.66
2023-05-06T14:39:57.994Z,43.86
2023-05-06T14:40:59.446Z,42.89
2023-05-06T14:41:57.964Z,41.27
2023-05-06T14:42:57.958Z,41.61
2023-05-06T14:43:57.971Z,40.92
2023-05-06T14:44:58.685Z,40.65
2023-05-06T14:45:57.954Z,39.66
2023-05-06T14:46:57.936Z,39.72
2023-05-06T14:47:57.954Z,41.01
2023-05-06T14:48:57.905Z,39.28
2023-05-06T14:49:57.885Z,39.38
2023-05-06T14:50:57.876Z,39.28
2023-05-06T14:51:58.521Z,40.45
2023-05-06T14:52:57.880Z,41.81
2023-05-06T14:53:57.845Z,42.34
2023-05-06T14:54:57.843Z,42.20
2023-05-06T14:55:57.832Z,42.60
2023-05-06T14:56:57.828Z,42.23
2023-05-06T14:57:57.816Z,43.14
2023-05-06T14:58:57.792Z,42.19
2023-05-06T14:59:57.777Z,42.40
2023-05-06T15:00:57.838Z,43.00
2023-05-06T15:01:57.760Z,42.11
2023-05-06T15:02:57.944Z,41.14
2023-05-06T15:03:57.776Z,41.00
2023-05-06T15:04:57.769Z,41.86
2023-05-06T15:05:57.857Z,40.87
2023-05-06T15:06:57.739Z,40.77
2023-05-06T15:07:57.720Z,42.04
2023-05-06T15:08:57.695Z,42.41
2023-05-06T15:09:58.069Z,41.13
2023-05-06T15:10:57.690Z,42.91
2023-05-06T15:11:57.672Z,43.12
2023-05-06T15:12:57.704Z,44.65
2023-05-06T15:13:57.676Z,43.48
2023-05-06T15:14:57.664Z,43.36
2023-05-06T15:15:57.622Z,44.04
2023-05-06T15:16:57.723Z,44.22
2023-05-06T15:17:57.738Z,43.22
2023-05-06T15:18:57.759Z,43.37
2023-05-06T15:19:57.621Z,44.44
2023-05-06T15:20:57.678Z,44.11
2023-05-06T15:21:57.820Z,43.93
2023-05-06T15:22:57.595Z,43.47
2023-05-06T15:23:57.598Z,43.39
2023-05-06T15:24:57.582Z,43.43
2023-05-06T15:25:57.605Z,42.29
2023-05-06T15:26:57.551Z,42.02
2023-05-06T15:27:57.560Z,41.62
2023-05-06T15:28:57.589Z,41.63
2023-05-06T15:29:57.721Z,40.79